Sky Queen — 3EHV9 — position and weather

sailwx.info

Track history (hours):
 
Tides and Currents Weather Stations Pressure Air Temp Water Temp Dewpoint Dewpoint Depression Visibility Wind Speed Wind Dir Waves Ship Positions

Sky Queen

Last reported at 2016-Jun-26 08:28 UTC. Time now 2016-Jul-01 10:04 UTC.
Position N 36°32' E 124°01'.

Length 89 m; draft 3.9 m.

Type: Cargo ship. MMSI: 372259000.

Date/timePositionNaut miles runAvg speedWind from/ knotsBaromVisibWave heightAir tempDewpointWater temp
2016-Jun-26 08:28N 36°32' E 124°01'9 9.2
2016-Jun-26 07:33N 36°39' E 123°55'11 9.4
2016-Jun-26 06:21N 36°49' E 123°48'148 7.8
2016-Jun-25 11:33N 37°57' E 121°04'8 8.1
2016-Jun-25 10:32N 37°59' E 120°53'7 7.3
2016-Jun-25 09:33N 38°00' E 120°45'6 6.3
2016-Jun-25 08:33N 38°01' E 120°37'6 6.0
2016-Jun-25 07:33N 38°01' E 120°29'6 6.3
2016-Jun-25 06:33N 37°57' E 120°23'6 5.8
2016-Jun-25 05:33N 37°53' E 120°28'8 8.0
2016-Jun-25 04:33N 37°48' E 120°36'2 1.9
2016-Jun-25 03:31N 37°47' E 120°38'0 0.0
2016-Jun-25 02:19N 37°47' E 120°38'0 0.0
2016-Jun-25 01:31N 37°47' E 120°38'0 0.0
2016-Jun-25 00:31N 37°47' E 120°38'0 0.0
2016-Jun-24 23:13N 37°47' E 120°38'0 0.0
2016-Jun-24 22:31N 37°47' E 120°38'0 0.0
2016-Jun-24 21:31N 37°47' E 120°38'0 0.0
2016-Jun-24 20:31N 37°47' E 120°38'0 0.0
2016-Jun-24 19:31N 37°47' E 120°38'0 0.0
2016-Jun-24 18:25N 37°47' E 120°38'0 0.0
2016-Jun-24 17:31N 37°47' E 120°38'0 0.0
2016-Jun-24 16:31N 37°47' E 120°38'0 0.0
2016-Jun-24 15:31N 37°47' E 120°38'0 0.0
2016-Jun-24 14:25N 37°47' E 120°38'0 0.0
2016-Jun-24 13:07N 37°47' E 120°38'0 0.0
2016-Jun-24 12:31N 37°47' E 120°38'0 0.0
2016-Jun-24 11:31N 37°47' E 120°38'0 0.0
2016-Jun-24 10:31N 37°47' E 120°38'0 0.0
2016-Jun-24 09:31N 37°47' E 120°38'0 0.0
2016-Jun-24 08:31N 37°47' E 120°38'0 0.0
2016-Jun-24 07:31N 37°47' E 120°38'0 0.0
2016-Jun-24 04:31N 37°47' E 120°38'0 0.0
2016-Jun-24 03:31N 37°47' E 120°38'0 0.0
2016-Jun-24 02:22N 37°47' E 120°38'0 0.0
2016-Jun-24 01:31N 37°47' E 120°38'0 0.0
2016-Jun-24 00:31N 37°47' E 120°38'0 0.0
2016-Jun-23 23:31N 37°47' E 120°38'0 0.0
2016-Jun-23 22:31N 37°47' E 120°38'0 0.0
2016-Jun-23 21:31N 37°47' E 120°38'0 0.0
2016-Jun-23 20:28N 37°47' E 120°38'0 0.0
2016-Jun-23 19:31N 37°47' E 120°38'0 0.0
2016-Jun-23 18:31N 37°47' E 120°38'0 0.0
2016-Jun-23 17:31N 37°47' E 120°38'0 0.0
2016-Jun-23 16:31N 37°47' E 120°38'0 0.0
2016-Jun-23 15:31N 37°47' E 120°38'0 0.0
2016-Jun-23 14:31N 37°47' E 120°38'0 0.0
2016-Jun-23 13:31N 37°47' E 120°38'0 0.0
2016-Jun-23 12:25N 37°47' E 120°38'0 0.0
2016-Jun-23 11:31N 37°47' E 120°38'0 0.0
2016-Jun-23 10:28N 37°47' E 120°38'0 0.0
2016-Jun-23 09:31N 37°47' E 120°38'0 0.0
2016-Jun-23 08:31N 37°47' E 120°38'0 0.0
2016-Jun-23 07:31N 37°47' E 120°38'0 0.0
2016-Jun-23 05:31N 37°47' E 120°38'0 0.0
2016-Jun-23 04:31N 37°47' E 120°38'0 0.0
2016-Jun-23 03:31N 37°47' E 120°38'0 0.0
2016-Jun-23 02:25N 37°47' E 120°38'0 0.0
2016-Jun-23 01:28N 37°47' E 120°38'0 0.0
2016-Jun-23 00:31N 37°47' E 120°38'0 0.0
2016-Jun-22 23:28N 37°47' E 120°38'0 0.0
2016-Jun-22 22:28N 37°47' E 120°38'0 0.0
2016-Jun-22 21:31N 37°47' E 120°38'0 0.0
2016-Jun-22 20:31N 37°47' E 120°38'0 0.0
2016-Jun-22 19:31N 37°47' E 120°38'0 0.0
2016-Jun-22 18:13N 37°47' E 120°38'0 0.0
2016-Jun-22 17:31N 37°47' E 120°38'0 0.0
2016-Jun-22 16:31N 37°47' E 120°38'0 0.0
2016-Jun-22 15:28N 37°47' E 120°38'0 0.0
2016-Jun-22 14:31N 37°47' E 120°38'0 0.0
2016-Jun-22 13:28N 37°47' E 120°38'0 0.0
2016-Jun-22 12:28N 37°47' E 120°38'0 0.0
2016-Jun-22 11:31N 37°47' E 120°38'0 0.0
2016-Jun-22 10:25N 37°47' E 120°38'0 0.0
2016-Jun-22 09:28N 37°47' E 120°38'0 0.0
2016-Jun-22 08:31N 37°47' E 120°38'0 0.0
2016-Jun-22 07:28N 37°47' E 120°38'0 0.0
2016-Jun-22 06:31N 37°47' E 120°38'0 0.0
2016-Jun-22 05:31N 37°47' E 120°38'0 0.0
2016-Jun-22 04:31N 37°47' E 120°38'0 0.0
2016-Jun-22 03:31N 37°47' E 120°38'0 0.0
2016-Jun-22 02:31N 37°47' E 120°38'0 0.0
2016-Jun-22 01:22N 37°47' E 120°38'0 0.0
2016-Jun-22 00:31N 37°47' E 120°38'0 0.0
2016-Jun-21 23:28N 37°47' E 120°38'0 0.0
2016-Jun-21 22:31N 37°47' E 120°38'0 0.0
2016-Jun-21 21:31N 37°47' E 120°38'0 0.0
2016-Jun-21 20:31N 37°47' E 120°38'0 0.0
2016-Jun-21 19:31N 37°47' E 120°38'0 0.0
2016-Jun-21 18:31N 37°47' E 120°38'0 0.0
2016-Jun-21 17:28N 37°47' E 120°38'0 0.0
2016-Jun-21 16:22N 37°47' E 120°38'0 0.0
2016-Jun-21 15:31N 37°47' E 120°38'0 0.0
2016-Jun-21 14:31N 37°47' E 120°38'0 0.0
2016-Jun-21 13:28N 37°47' E 120°38'0 0.0
2016-Jun-21 12:31N 37°47' E 120°38'0 0.0
2016-Jun-21 11:22N 37°47' E 120°38'0 0.0
2016-Jun-21 10:31N 37°47' E 120°38'0 0.0
2016-Jun-21 09:31N 37°47' E 120°38'0 0.0
2016-Jun-21 08:31N 37°47' E 120°38'0 0.0
2016-Jun-21 07:28N 37°47' E 120°38'0 0.0
2016-Jun-21 04:31N 37°47' E 120°38'0 0.0
2016-Jun-21 03:31N 37°47' E 120°38'0 0.0
2016-Jun-21 02:31N 37°47' E 120°38'0 0.0
2016-Jun-21 01:31N 37°47' E 120°38'0 0.0
2016-Jun-21 00:28N 37°47' E 120°38'0 0.0
2016-Jun-20 23:28N 37°47' E 120°38'0 0.0
2016-Jun-20 20:31N 37°47' E 120°38'0 0.0
2016-Jun-20 19:28N 37°47' E 120°38'0 0.0
2016-Jun-20 18:31N 37°47' E 120°38'0 0.0
2016-Jun-20 17:31N 37°47' E 120°38'0 0.0
2016-Jun-20 16:31N 37°47' E 120°38'0 0.0
2016-Jun-20 15:31N 37°47' E 120°38'0 0.0
2016-Jun-20 14:31N 37°47' E 120°38'0 0.0
2016-Jun-20 13:31N 37°47' E 120°38'0 0.0
2016-Jun-20 12:31N 37°47' E 120°38'0 0.0
2016-Jun-20 11:31N 37°47' E 120°38'0 0.0
2016-Jun-20 10:31N 37°47' E 120°38'0 0.0
2016-Jun-20 09:31N 37°47' E 120°38'0 0.0
2016-Jun-20 08:28N 37°47' E 120°38'0 0.0
2016-Jun-20 07:28N 37°47' E 120°38'0 0.0
2016-Jun-20 06:31N 37°47' E 120°38'0 0.0
2016-Jun-20 05:31N 37°47' E 120°38'0 0.0
2016-Jun-20 04:31N 37°47' E 120°38'0 0.0
2016-Jun-20 03:31N 37°47' E 120°38'1 1.3
2016-Jun-20 02:34N 37°48' E 120°37'6 5.4
2016-Jun-20 01:31N 37°51' E 120°31'0 0.1
2016-Jun-20 00:34N 37°51' E 120°31'0 0.0
2016-Jun-19 23:33N 37°51' E 120°31'0 0.0
2016-Jun-19 22:33N 37°51' E 120°31'0 0.0
2016-Jun-19 21:30N 37°51' E 120°31'0 0.1
2016-Jun-19 20:33N 37°51' E 120°31'0 0.1
2016-Jun-19 19:30N 37°51' E 120°31'0 0.0
2016-Jun-19 18:30N 37°51' E 120°31'0 0.0
2016-Jun-19 17:30N 37°51' E 120°31'0 0.0
2016-Jun-19 16:33N 37°51' E 120°31'0 0.0
2016-Jun-19 15:33N 37°51' E 120°31'0 0.0
2016-Jun-19 14:33N 37°51' E 120°31'0 0.0
2016-Jun-19 13:33N 37°51' E 120°31'0 0.0
2016-Jun-19 12:33N 37°51' E 120°31'0 0.1
2016-Jun-19 11:27N 37°51' E 120°31'0 0.0
2016-Jun-19 10:27N 37°51' E 120°31'0 0.0
2016-Jun-19 09:33N 37°51' E 120°31'0 0.0
2016-Jun-19 08:27N 37°51' E 120°31'0 0.0
2016-Jun-19 07:33N 37°51' E 120°31'0 0.0
2016-Jun-19 06:27N 37°51' E 120°31'0 0.1
2016-Jun-19 05:33N 37°51' E 120°31'0 0.0
2016-Jun-19 04:33N 37°51' E 120°31'0 0.0
2016-Jun-19 03:30N 37°51' E 120°31'0 0.0
2016-Jun-19 02:33N 37°51' E 120°31'0 0.1
2016-Jun-19 01:33N 37°51' E 120°31'4 4.0
2016-Jun-19 00:33N 37°53' E 120°27'4 4.5
2016-Jun-18 23:33N 37°57' E 120°24'8 7.9
2016-Jun-18 22:33N 38°04' E 120°29'8 7.8
2016-Jun-18 21:33N 38°03' E 120°38'7 7.5
2016-Jun-18 20:33N 38°01' E 120°48'8 7.9
2016-Jun-18 19:34N 37°60' E 120°57'9 8.4
2016-Jun-18 18:31N 37°60' E 121°09'  
Track history (hours):
 
Tides and Currents Weather Stations Pressure Air Temp Water Temp Dewpoint Dewpoint Depression Visibility Wind Speed Wind Dir Waves Ship Positions

Sky Queen

Last reported at 2016-Jun-26 08:28 UTC. Time now 2016-Jul-01 10:04 UTC.
Position N 36°32' E 124°01'.

Length 89 m; draft 3.9 m.

Type: Cargo ship. MMSI: 372259000.

Date/timePositionNaut miles runAvg speedWind from/ knotsBaromVisibWave heightAir tempDewpointWater temp
2016-Jun-26 08:28N 36°32' E 124°01'9 9.2
2016-Jun-26 07:33N 36°39' E 123°55'11 9.4
2016-Jun-26 06:21N 36°49' E 123°48'148 7.8
2016-Jun-25 11:33N 37°57' E 121°04'8 8.1
2016-Jun-25 10:32N 37°59' E 120°53'7 7.3
2016-Jun-25 09:33N 38°00' E 120°45'6 6.3
2016-Jun-25 08:33N 38°01' E 120°37'6 6.0
2016-Jun-25 07:33N 38°01' E 120°29'6 6.3
2016-Jun-25 06:33N 37°57' E 120°23'6 5.8
2016-Jun-25 05:33N 37°53' E 120°28'8 8.0
2016-Jun-25 04:33N 37°48' E 120°36'2 1.9
2016-Jun-25 03:31N 37°47' E 120°38'0 0.0
2016-Jun-25 02:19N 37°47' E 120°38'0 0.0
2016-Jun-25 01:31N 37°47' E 120°38'0 0.0
2016-Jun-25 00:31N 37°47' E 120°38'0 0.0
2016-Jun-24 23:13N 37°47' E 120°38'0 0.0
2016-Jun-24 22:31N 37°47' E 120°38'0 0.0
2016-Jun-24 21:31N 37°47' E 120°38'0 0.0
2016-Jun-24 20:31N 37°47' E 120°38'0 0.0
2016-Jun-24 19:31N 37°47' E 120°38'0 0.0
2016-Jun-24 18:25N 37°47' E 120°38'0 0.0
2016-Jun-24 17:31N 37°47' E 120°38'0 0.0
2016-Jun-24 16:31N 37°47' E 120°38'0 0.0
2016-Jun-24 15:31N 37°47' E 120°38'0 0.0
2016-Jun-24 14:25N 37°47' E 120°38'0 0.0
2016-Jun-24 13:07N 37°47' E 120°38'0 0.0
2016-Jun-24 12:31N 37°47' E 120°38'0 0.0
2016-Jun-24 11:31N 37°47' E 120°38'0 0.0
2016-Jun-24 10:31N 37°47' E 120°38'0 0.0
2016-Jun-24 09:31N 37°47' E 120°38'0 0.0
2016-Jun-24 08:31N 37°47' E 120°38'0 0.0
2016-Jun-24 07:31N 37°47' E 120°38'0 0.0
2016-Jun-24 04:31N 37°47' E 120°38'0 0.0
2016-Jun-24 03:31N 37°47' E 120°38'0 0.0
2016-Jun-24 02:22N 37°47' E 120°38'0 0.0
2016-Jun-24 01:31N 37°47' E 120°38'0 0.0
2016-Jun-24 00:31N 37°47' E 120°38'0 0.0
2016-Jun-23 23:31N 37°47' E 120°38'0 0.0
2016-Jun-23 22:31N 37°47' E 120°38'0 0.0
2016-Jun-23 21:31N 37°47' E 120°38'0 0.0
2016-Jun-23 20:28N 37°47' E 120°38'0 0.0
2016-Jun-23 19:31N 37°47' E 120°38'0 0.0
2016-Jun-23 18:31N 37°47' E 120°38'0 0.0
2016-Jun-23 17:31N 37°47' E 120°38'0 0.0
2016-Jun-23 16:31N 37°47' E 120°38'0 0.0
2016-Jun-23 15:31N 37°47' E 120°38'0 0.0
2016-Jun-23 14:31N 37°47' E 120°38'0 0.0
2016-Jun-23 13:31N 37°47' E 120°38'0 0.0
2016-Jun-23 12:25N 37°47' E 120°38'0 0.0
2016-Jun-23 11:31N 37°47' E 120°38'0 0.0
2016-Jun-23 10:28N 37°47' E 120°38'0 0.0
2016-Jun-23 09:31N 37°47' E 120°38'0 0.0
2016-Jun-23 08:31N 37°47' E 120°38'0 0.0
2016-Jun-23 07:31N 37°47' E 120°38'0 0.0
2016-Jun-23 05:31N 37°47' E 120°38'0 0.0
2016-Jun-23 04:31N 37°47' E 120°38'0 0.0
2016-Jun-23 03:31N 37°47' E 120°38'0 0.0
2016-Jun-23 02:25N 37°47' E 120°38'0 0.0
2016-Jun-23 01:28N 37°47' E 120°38'0 0.0
2016-Jun-23 00:31N 37°47' E 120°38'0 0.0
2016-Jun-22 23:28N 37°47' E 120°38'0 0.0
2016-Jun-22 22:28N 37°47' E 120°38'0 0.0
2016-Jun-22 21:31N 37°47' E 120°38'0 0.0
2016-Jun-22 20:31N 37°47' E 120°38'0 0.0
2016-Jun-22 19:31N 37°47' E 120°38'0 0.0
2016-Jun-22 18:13N 37°47' E 120°38'0 0.0
2016-Jun-22 17:31N 37°47' E 120°38'0 0.0
2016-Jun-22 16:31N 37°47' E 120°38'0 0.0
2016-Jun-22 15:28N 37°47' E 120°38'0 0.0
2016-Jun-22 14:31N 37°47' E 120°38'0 0.0
2016-Jun-22 13:28N 37°47' E 120°38'0 0.0
2016-Jun-22 12:28N 37°47' E 120°38'0 0.0
2016-Jun-22 11:31N 37°47' E 120°38'0 0.0
2016-Jun-22 10:25N 37°47' E 120°38'0 0.0
2016-Jun-22 09:28N 37°47' E 120°38'0 0.0
2016-Jun-22 08:31N 37°47' E 120°38'0 0.0
2016-Jun-22 07:28N 37°47' E 120°38'0 0.0
2016-Jun-22 06:31N 37°47' E 120°38'0 0.0
2016-Jun-22 05:31N 37°47' E 120°38'0 0.0
2016-Jun-22 04:31N 37°47' E 120°38'0 0.0
2016-Jun-22 03:31N 37°47' E 120°38'0 0.0
2016-Jun-22 02:31N 37°47' E 120°38'0 0.0
2016-Jun-22 01:22N 37°47' E 120°38'0 0.0
2016-Jun-22 00:31N 37°47' E 120°38'0 0.0
2016-Jun-21 23:28N 37°47' E 120°38'0 0.0
2016-Jun-21 22:31N 37°47' E 120°38'0 0.0
2016-Jun-21 21:31N 37°47' E 120°38'0 0.0
2016-Jun-21 20:31N 37°47' E 120°38'0 0.0
2016-Jun-21 19:31N 37°47' E 120°38'0 0.0
2016-Jun-21 18:31N 37°47' E 120°38'0 0.0
2016-Jun-21 17:28N 37°47' E 120°38'0 0.0
2016-Jun-21 16:22N 37°47' E 120°38'0 0.0
2016-Jun-21 15:31N 37°47' E 120°38'0 0.0
2016-Jun-21 14:31N 37°47' E 120°38'0 0.0
2016-Jun-21 13:28N 37°47' E 120°38'0 0.0
2016-Jun-21 12:31N 37°47' E 120°38'0 0.0
2016-Jun-21 11:22N 37°47' E 120°38'0 0.0
2016-Jun-21 10:31N 37°47' E 120°38'0 0.0
2016-Jun-21 09:31N 37°47' E 120°38'0 0.0
2016-Jun-21 08:31N 37°47' E 120°38'0 0.0
2016-Jun-21 07:28N 37°47' E 120°38'0 0.0
2016-Jun-21 04:31N 37°47' E 120°38'0 0.0
2016-Jun-21 03:31N 37°47' E 120°38'0 0.0
2016-Jun-21 02:31N 37°47' E 120°38'0 0.0
2016-Jun-21 01:31N 37°47' E 120°38'0 0.0
2016-Jun-21 00:28N 37°47' E 120°38'0 0.0
2016-Jun-20 23:28N 37°47' E 120°38'0 0.0
2016-Jun-20 20:31N 37°47' E 120°38'0 0.0
2016-Jun-20 19:28N 37°47' E 120°38'0 0.0
2016-Jun-20 18:31N 37°47' E 120°38'0 0.0
2016-Jun-20 17:31N 37°47' E 120°38'0 0.0
2016-Jun-20 16:31N 37°47' E 120°38'0 0.0
2016-Jun-20 15:31N 37°47' E 120°38'0 0.0
2016-Jun-20 14:31N 37°47' E 120°38'0 0.0
2016-Jun-20 13:31N 37°47' E 120°38'0 0.0
2016-Jun-20 12:31N 37°47' E 120°38'0 0.0
2016-Jun-20 11:31N 37°47' E 120°38'0 0.0
2016-Jun-20 10:31N 37°47' E 120°38'0 0.0
2016-Jun-20 09:31N 37°47' E 120°38'0 0.0
2016-Jun-20 08:28N 37°47' E 120°38'0 0.0
2016-Jun-20 07:28N 37°47' E 120°38'0 0.0
2016-Jun-20 06:31N 37°47' E 120°38'0 0.0
2016-Jun-20 05:31N 37°47' E 120°38'0 0.0
2016-Jun-20 04:31N 37°47' E 120°38'0 0.0
2016-Jun-20 03:31N 37°47' E 120°38'1 1.3
2016-Jun-20 02:34N 37°48' E 120°37'6 5.4
2016-Jun-20 01:31N 37°51' E 120°31'0 0.1
2016-Jun-20 00:34N 37°51' E 120°31'0 0.0
2016-Jun-19 23:33N 37°51' E 120°31'0 0.0
2016-Jun-19 22:33N 37°51' E 120°31'0 0.0
2016-Jun-19 21:30N 37°51' E 120°31'0 0.1
2016-Jun-19 20:33N 37°51' E 120°31'0 0.1
2016-Jun-19 19:30N 37°51' E 120°31'0 0.0
2016-Jun-19 18:30N 37°51' E 120°31'0 0.0
2016-Jun-19 17:30N 37°51' E 120°31'0 0.0
2016-Jun-19 16:33N 37°51' E 120°31'0 0.0
2016-Jun-19 15:33N 37°51' E 120°31'0 0.0
2016-Jun-19 14:33N 37°51' E 120°31'0 0.0
2016-Jun-19 13:33N 37°51' E 120°31'0 0.0
2016-Jun-19 12:33N 37°51' E 120°31'0 0.1
2016-Jun-19 11:27N 37°51' E 120°31'0 0.0
2016-Jun-19 10:27N 37°51' E 120°31'0 0.0
2016-Jun-19 09:33N 37°51' E 120°31'0 0.0
2016-Jun-19 08:27N 37°51' E 120°31'0 0.0
2016-Jun-19 07:33N 37°51' E 120°31'0 0.0
2016-Jun-19 06:27N 37°51' E 120°31'0 0.1
2016-Jun-19 05:33N 37°51' E 120°31'0 0.0
2016-Jun-19 04:33N 37°51' E 120°31'0 0.0
2016-Jun-19 03:30N 37°51' E 120°31'0 0.0
2016-Jun-19 02:33N 37°51' E 120°31'0 0.1
2016-Jun-19 01:33N 37°51' E 120°31'4 4.0
2016-Jun-19 00:33N 37°53' E 120°27'4 4.5
2016-Jun-18 23:33N 37°57' E 120°24'8 7.9
2016-Jun-18 22:33N 38°04' E 120°29'8 7.8
2016-Jun-18 21:33N 38°03' E 120°38'7 7.5
2016-Jun-18 20:33N 38°01' E 120°48'8 7.9
2016-Jun-18 19:34N 37°60' E 120°57'9 8.4
2016-Jun-18 18:31N 37°60' E 121°09'  

Dump ship's entire track history